sensor_id;sensor_type;location;lat;lon;timestamp;P1;P2;P0
74428;PMS5003;62860;52.134;23.714;2022-10-26T00:03:45;8.6;6.8;5.4
74428;PMS5003;62860;52.134;23.714;2022-10-26T00:09:23;7.6;6.8;5
74428;PMS5003;62860;52.134;23.714;2022-10-26T00:14:15;12.2;8.4;5.8
74428;PMS5003;62860;52.134;23.714;2022-10-26T00:18:59;10;8.4;5.6
74428;PMS5003;62860;52.134;23.714;2022-10-26T00:23:57;11.2;9.2;7.2
74428;PMS5003;62860;52.134;23.714;2022-10-26T00:29:21;12.6;10.2;7.8
74428;PMS5003;62860;52.134;23.714;2022-10-26T00:34:21;11.2;9;6.2
74428;PMS5003;62860;52.134;23.714;2022-10-26T00:39:03;9.2;9;6.8
74428;PMS5003;62860;52.134;23.714;2022-10-26T00:43:59;8.6;8.2;6.6
74428;PMS5003;62860;52.134;23.714;2022-10-26T00:49:01;11;9.4;6.8
74428;PMS5003;62860;52.134;23.714;2022-10-26T00:54:10;10.4;9.8;6.4
74428;PMS5003;62860;52.134;23.714;2022-10-26T00:59:21;9.4;7.6;5.8
74428;PMS5003;62860;52.134;23.714;2022-10-26T01:04:03;8.6;7.6;5.6
74428;PMS5003;62860;52.134;23.714;2022-10-26T01:09:13;10.8;7.6;5.4
74428;PMS5003;62860;52.134;23.714;2022-10-26T01:14:19;10.8;8.6;7
74428;PMS5003;62860;52.134;23.714;2022-10-26T01:19:20;11.4;9.4;6.4
74428;PMS5003;62860;52.134;23.714;2022-10-26T01:24:25;11.6;8.2;6.4
74428;PMS5003;62860;52.134;23.714;2022-10-26T01:29:31;9.6;8;6.4
74428;PMS5003;62860;52.134;23.714;2022-10-26T01:34:00;11.2;8.2;5.8
74428;PMS5003;62860;52.134;23.714;2022-10-26T01:38:56;11.4;9.8;7.8
74428;PMS5003;62860;52.134;23.714;2022-10-26T01:44:20;12;9.6;6.2
74428;PMS5003;62860;52.134;23.714;2022-10-26T01:49:26;9.4;7.6;6
74428;PMS5003;62860;52.134;23.714;2022-10-26T01:54:21;13;10.6;7.6
74428;PMS5003;62860;52.134;23.714;2022-10-26T01:59:18;11;9;6
74428;PMS5003;62860;52.134;23.714;2022-10-26T02:04:21;10.6;9.2;7
74428;PMS5003;62860;52.134;23.714;2022-10-26T02:09:07;9;8.6;6.2
74428;PMS5003;62860;52.134;23.714;2022-10-26T02:14:17;9;8.4;6.6
74428;PMS5003;62860;52.134;23.714;2022-10-26T02:18:59;8.2;6.4;5.2
74428;PMS5003;62860;52.134;23.714;2022-10-26T02:23:46;9.6;7.8;6
74428;PMS5003;62860;52.134;23.714;2022-10-26T02:29:00;9.8;9;6
74428;PMS5003;62860;52.134;23.714;2022-10-26T02:33:46;10.6;8.8;6.6
74428;PMS5003;62860;52.134;23.714;2022-10-26T02:39:23;11.8;9.4;6.8
74428;PMS5003;62860;52.134;23.714;2022-10-26T02:44:03;12.4;9.4;6.6
74428;PMS5003;62860;52.134;23.714;2022-10-26T02:49:09;10.2;8;6.2
74428;PMS5003;62860;52.134;23.714;2022-10-26T02:54:13;10.6;8.6;6
74428;PMS5003;62860;52.134;23.714;2022-10-26T02:59:26;12;8.8;6.2
74428;PMS5003;62860;52.134;23.714;2022-10-26T03:04:27;10.2;9.4;6.6
74428;PMS5003;62860;52.134;23.714;2022-10-26T03:08:57;9.4;7.6;5.8
74428;PMS5003;62860;52.134;23.714;2022-10-26T03:13:59;7.8;7.4;5.4
74428;PMS5003;62860;52.134;23.714;2022-10-26T03:18:57;9;8.4;5.8
74428;PMS5003;62860;52.134;23.714;2022-10-26T03:24:11;9.8;7.8;5.2
74428;PMS5003;62860;52.134;23.714;2022-10-26T03:29:05;10.4;7.8;5.8
74428;PMS5003;62860;52.134;23.714;2022-10-26T03:33:51;10.8;8.4;5.8
74428;PMS5003;62860;52.134;23.714;2022-10-26T03:39:15;10;9.4;7
74428;PMS5003;62860;52.134;23.714;2022-10-26T03:44:25;11.6;10.2;7.2
74428;PMS5003;62860;52.134;23.714;2022-10-26T03:49:13;9.2;7.8;5.8
74428;PMS5003;62860;52.134;23.714;2022-10-26T03:54:23;8;7;5.6
74428;PMS5003;62860;52.134;23.714;2022-10-26T03:59:25;6.8;6.6;5.2
74428;PMS5003;62860;52.134;23.714;2022-10-26T04:03:59;8.8;6.8;5.6
74428;PMS5003;62860;52.134;23.714;2022-10-26T04:08:59;7.8;6.6;5.2
74428;PMS5003;62860;52.134;23.714;2022-10-26T04:14:17;8.4;7.2;5.8
74428;PMS5003;62860;52.134;23.714;2022-10-26T04:19:25;9;7.6;5.8
74428;PMS5003;62860;52.134;23.714;2022-10-26T04:24:11;10.2;8;6.4
74428;PMS5003;62860;52.134;23.714;2022-10-26T04:29:15;9.6;7.8;5.6
74428;PMS5003;62860;52.134;23.714;2022-10-26T04:34:15;8.8;7;5.2
74428;PMS5003;62860;52.134;23.714;2022-10-26T04:38:46;8;7.2;5.6
74428;PMS5003;62860;52.134;23.714;2022-10-26T04:44:03;10;9.4;7.2
74428;PMS5003;62860;52.134;23.714;2022-10-26T04:49:11;10.6;10;7
74428;PMS5003;62860;52.134;23.714;2022-10-26T04:53:59;9.8;8.6;6.2
74428;PMS5003;62860;52.134;23.714;2022-10-26T04:58:59;11.8;9.4;7.4
74428;PMS5003;62860;52.134;23.714;2022-10-26T05:04:07;11.6;9.4;7.2
74428;PMS5003;62860;52.134;23.714;2022-10-26T05:09:25;12.6;10.2;7.4
74428;PMS5003;62860;52.134;23.714;2022-10-26T05:14:17;14.5;11;7.5
74428;PMS5003;62860;52.134;23.714;2022-10-26T05:19:09;13.6;11.2;7.8
74428;PMS5003;62860;52.134;23.714;2022-10-26T05:24:11;13.8;11.8;7.8
74428;PMS5003;62860;52.134;23.714;2022-10-26T05:29:25;11.8;10.6;8
74428;PMS5003;62860;52.134;23.714;2022-10-26T05:34:25;13.4;9.6;7.6
74428;PMS5003;62860;52.134;23.714;2022-10-26T05:39:05;11.4;10;8
74428;PMS5003;62860;52.134;23.714;2022-10-26T05:43:45;13.4;11.2;8.2
74428;PMS5003;62860;52.134;23.714;2022-10-26T05:48:45;11.6;10.4;6.6
74428;PMS5003;62860;52.134;23.714;2022-10-26T05:54:15;12.2;11.6;7
74428;PMS5003;62860;52.134;23.714;2022-10-26T05:58:51;11.2;9.6;6.6
74428;PMS5003;62860;52.134;23.714;2022-10-26T06:04:09;11.6;9.4;7.2
74428;PMS5003;62860;52.134;23.714;2022-10-26T06:09:17;10.8;9.2;7.4
74428;PMS5003;62860;52.134;23.714;2022-10-26T06:14:19;13.2;11;8.4
74428;PMS5003;62860;52.134;23.714;2022-10-26T06:19:14;15.2;13.2;9.4
74428;PMS5003;62860;52.134;23.714;2022-10-26T06:24:29;16.2;13.6;10
74428;PMS5003;62860;52.134;23.714;2022-10-26T06:29:20;15.4;13.2;8.8
74428;PMS5003;62860;52.134;23.714;2022-10-26T06:33:59;13.6;11.6;8.2
74428;PMS5003;62860;52.134;23.714;2022-10-26T06:38:45;13.2;11.4;8
74428;PMS5003;62860;52.134;23.714;2022-10-26T06:44:00;12.8;10;6.6
74428;PMS5003;62860;52.134;23.714;2022-10-26T06:49:28;11.8;8.6;6.2
74428;PMS5003;62860;52.134;23.714;2022-10-26T06:54:17;11.8;10;7
74428;PMS5003;62860;52.134;23.714;2022-10-26T06:59:29;10;8.8;6.4
74428;PMS5003;62860;52.134;23.714;2022-10-26T07:04:19;10.4;8.8;6.4
74428;PMS5003;62860;52.134;23.714;2022-10-26T07:09:13;11.2;8.8;5.8
74428;PMS5003;62860;52.134;23.714;2022-10-26T07:13:45;10.4;9;5.8
74428;PMS5003;62860;52.134;23.714;2022-10-26T07:19:13;12.8;10.2;7.2
74428;PMS5003;62860;52.134;23.714;2022-10-26T07:23:45;10.2;9;6.4
74428;PMS5003;62860;52.134;23.714;2022-10-26T07:29:05;11.6;9.6;7
74428;PMS5003;62860;52.134;23.714;2022-10-26T07:33:45;11.2;9.8;8
74428;PMS5003;62860;52.134;23.714;2022-10-26T07:39:27;11.4;10.6;8
74428;PMS5003;62860;52.134;23.714;2022-10-26T07:44:27;23.8;20;13.6
74428;PMS5003;62860;52.134;23.714;2022-10-26T07:49:09;20.4;17.8;11.8
74428;PMS5003;62860;52.134;23.714;2022-10-26T07:54:09;10.8;9.6;7.4
74428;PMS5003;62860;52.134;23.714;2022-10-26T07:59:25;11.2;10;7
74428;PMS5003;62860;52.134;23.714;2022-10-26T08:04:25;9.2;7.8;5.8
74428;PMS5003;62860;52.134;23.714;2022-10-26T08:09:05;11.2;9;6.2
74428;PMS5003;62860;52.134;23.714;2022-10-26T08:13:46;12.8;10.6;7.4
74428;PMS5003;62860;52.134;23.714;2022-10-26T08:18:59;10.4;6.6;5.2
74428;PMS5003;62860;52.134;23.714;2022-10-26T08:23:59;8.2;6.8;5.2
74428;PMS5003;62860;52.134;23.714;2022-10-26T08:29:08;8.2;6.8;4.8
74428;PMS5003;62860;52.134;23.714;2022-10-26T08:34:06;12.4;9.8;6.6
74428;PMS5003;62860;52.134;23.714;2022-10-26T08:39:16;12;9.8;7.6
74428;PMS5003;62860;52.134;23.714;2022-10-26T08:44:23;10.6;9.6;6.6
74428;PMS5003;62860;52.134;23.714;2022-10-26T08:49:01;7.2;6;4.6
74428;PMS5003;62860;52.134;23.714;2022-10-26T08:54:33;8.2;5.6;4.4
74428;PMS5003;62860;52.134;23.714;2022-10-26T08:59:23;7;6.2;4.8
74428;PMS5003;62860;52.134;23.714;2022-10-26T09:04:00;7.4;6;4.6
74428;PMS5003;62860;52.134;23.714;2022-10-26T09:09:00;5.8;5;4
74428;PMS5003;62860;52.134;23.714;2022-10-26T09:13:49;12.8;10.2;7.4
74428;PMS5003;62860;52.134;23.714;2022-10-26T09:19:34;8;6.6;5
74428;PMS5003;62860;52.134;23.714;2022-10-26T09:24:18;8.6;6.8;5.2
74428;PMS5003;62860;52.134;23.714;2022-10-26T09:29:28;8;5.6;4.6
74428;PMS5003;62860;52.134;23.714;2022-10-26T09:34:19;8.8;6.2;5
74428;PMS5003;62860;52.134;23.714;2022-10-26T09:39:21;8;6.4;4.8
74428;PMS5003;62860;52.134;23.714;2022-10-26T09:44:00;7.8;5.6;4.6
74428;PMS5003;62860;52.134;23.714;2022-10-26T09:49:12;5.6;4.8;4
74428;PMS5003;62860;52.134;23.714;2022-10-26T09:54:20;6.8;5.2;4.4
74428;PMS5003;62860;52.134;23.714;2022-10-26T09:59:00;6.4;4.8;3.8
74428;PMS5003;62860;52.134;23.714;2022-10-26T10:03:46;6;5.4;4.6
74428;PMS5003;62860;52.134;23.714;2022-10-26T10:09:28;5.6;4.8;3.8
74428;PMS5003;62860;52.134;23.714;2022-10-26T10:14:30;7.8;6.2;5
74428;PMS5003;62860;52.134;23.714;2022-10-26T10:19:21;8.4;7.4;5.2
74428;PMS5003;62860;52.134;23.714;2022-10-26T10:24:20;7;5.5;4.5
74428;PMS5003;62860;52.134;23.714;2022-10-26T10:29:18;7.8;6.2;4.6
74428;PMS5003;62860;52.134;23.714;2022-10-26T10:34:30;6.6;5.2;4.4
74428;PMS5003;62860;52.134;23.714;2022-10-26T10:38:46;7.8;6.2;5
74428;PMS5003;62860;52.134;23.714;2022-10-26T10:44:02;6.2;4.8;4.2
74428;PMS5003;62860;52.134;23.714;2022-10-26T10:49:00;5.8;4.4;4
74428;PMS5003;62860;52.134;23.714;2022-10-26T10:54:16;5.6;3.8;3.2
74428;PMS5003;62860;52.134;23.714;2022-10-26T10:58:48;5;3.8;3
74428;PMS5003;62860;52.134;23.714;2022-10-26T11:03:49;3.8;3.2;2.4
74428;PMS5003;62860;52.134;23.714;2022-10-26T11:09:18;3;2.4;2
74428;PMS5003;62860;52.134;23.714;2022-10-26T11:14:21;3;2.2;1.6
74428;PMS5003;62860;52.134;23.714;2022-10-26T11:19:03;3.8;2.8;2.4
74428;PMS5003;62860;52.134;23.714;2022-10-26T11:24:30;2.8;2.4;2.2
74428;PMS5003;62860;52.134;23.714;2022-10-26T11:29:22;2.6;2.4;1.8
74428;PMS5003;62860;52.134;23.714;2022-10-26T11:34:12;3.8;2.4;2.2
74428;PMS5003;62860;52.134;23.714;2022-10-26T11:38:47;3.8;3.2;2.2
74428;PMS5003;62860;52.134;23.714;2022-10-26T11:44:00;3;2.6;2.2
74428;PMS5003;62860;52.134;23.714;2022-10-26T11:49:32;4.2;3.4;2.2
74428;PMS5003;62860;52.134;23.714;2022-10-26T11:54:18;3;3;2.4
74428;PMS5003;62860;52.134;23.714;2022-10-26T11:59:30;4.2;2.6;2
74428;PMS5003;62860;52.134;23.714;2022-10-26T12:04:18;2.4;2.2;1.6
74428;PMS5003;62860;52.134;23.714;2022-10-26T12:09:22;2.4;2.2;1.6
74428;PMS5003;62860;52.134;23.714;2022-10-26T12:13:56;3.2;2.2;1.8
74428;PMS5003;62860;52.134;23.714;2022-10-26T12:19:19;2;1.8;1.8
74428;PMS5003;62860;52.134;23.714;2022-10-26T12:23:55;2.4;2;1.8
74428;PMS5003;62860;52.134;23.714;2022-10-26T12:29:34;2.2;1.6;1.6
74428;PMS5003;62860;52.134;23.714;2022-10-26T12:34:00;1.8;1.8;1.6
74428;PMS5003;62860;52.134;23.714;2022-10-26T12:39:30;3.4;2.2;2.2
74428;PMS5003;62860;52.134;23.714;2022-10-26T12:44:30;2.2;1.8;1.6
74428;PMS5003;62860;52.134;23.714;2022-10-26T12:53:48;4.8;4.2;3
74428;PMS5003;62860;52.134;23.714;2022-10-26T12:59:18;3.8;2.6;2.2
74428;PMS5003;62860;52.134;23.714;2022-10-26T13:08:56;4.6;2.4;2.2
74428;PMS5003;62860;52.134;23.714;2022-10-26T13:14:00;2.4;1.6;1.4
74428;PMS5003;62860;52.134;23.714;2022-10-26T13:18:46;3;2.4;1.8
74428;PMS5003;62860;52.134;23.714;2022-10-26T13:24:00;2.8;1.6;1.6
74428;PMS5003;62860;52.134;23.714;2022-10-26T13:29:07;2.8;2.6;2
74428;PMS5003;62860;52.134;23.714;2022-10-26T13:34:09;1.6;1.4;1
74428;PMS5003;62860;52.134;23.714;2022-10-26T13:39:19;2.8;2.4;1.8
74428;PMS5003;62860;52.134;23.714;2022-10-26T13:44:24;3.4;2.2;1.6
74428;PMS5003;62860;52.134;23.714;2022-10-26T13:49:13;2.2;2.2;2
74428;PMS5003;62860;52.134;23.714;2022-10-26T13:54:31;2.2;1.6;1.4
74428;PMS5003;62860;52.134;23.714;2022-10-26T13:59:20;2.6;2;1.4
74428;PMS5003;62860;52.134;23.714;2022-10-26T14:04:12;2.4;1.8;1.6
74428;PMS5003;62860;52.134;23.714;2022-10-26T14:08:46;3.8;3;2.6
74428;PMS5003;62860;52.134;23.714;2022-10-26T14:13:46;6;5;4
74428;PMS5003;62860;52.134;23.714;2022-10-26T14:19:17;5.8;4.4;3.6
74428;PMS5003;62860;52.134;23.714;2022-10-26T14:24:20;5;3.4;2.6
74428;PMS5003;62860;52.134;23.714;2022-10-26T14:29:31;3.6;3.4;2.4
74428;PMS5003;62860;52.134;23.714;2022-10-26T14:34:18;4.2;3.2;2.6
74428;PMS5003;62860;52.134;23.714;2022-10-26T14:39:22;4.2;3.2;2.8
74428;PMS5003;62860;52.134;23.714;2022-10-26T14:44:12;4;3.2;2.8
74428;PMS5003;62860;52.134;23.714;2022-10-26T14:49:17;2.8;2.6;2.2
74428;PMS5003;62860;52.134;23.714;2022-10-26T14:54:18;5.6;5.2;3.8
74428;PMS5003;62860;52.134;23.714;2022-10-26T14:58:46;13.2;10.4;7.8
74428;PMS5003;62860;52.134;23.714;2022-10-26T15:04:01;52.4;41.4;25.8
74428;PMS5003;62860;52.134;23.714;2022-10-26T15:08:46;85.8;69.4;42.8
74428;PMS5003;62860;52.134;23.714;2022-10-26T15:14:30;60.8;47.8;29.8
74428;PMS5003;62860;52.134;23.714;2022-10-26T15:19:08;33.8;30.8;19.8
74428;PMS5003;62860;52.134;23.714;2022-10-26T15:23:46;56;41.2;26.2
74428;PMS5003;62860;52.134;23.714;2022-10-26T15:29:13;44.4;35.4;21.4
74428;PMS5003;62860;52.134;23.714;2022-10-26T15:34:28;20.8;16.2;10.6
74428;PMS5003;62860;52.134;23.714;2022-10-26T15:39:28;8.5;8.3;6.3
74428;PMS5003;62860;52.134;23.714;2022-10-26T15:44:01;6.2;4.8;4.2
74428;PMS5003;62860;52.134;23.714;2022-10-26T15:48:58;5.2;3.8;3
74428;PMS5003;62860;52.134;23.714;2022-10-26T15:54:00;6;5.2;4.2
74428;PMS5003;62860;52.134;23.714;2022-10-26T15:59:15;11.4;10.4;8.2
74428;PMS5003;62860;52.134;23.714;2022-10-26T16:04:07;21.4;16.8;11.8
74428;PMS5003;62860;52.134;23.714;2022-10-26T16:08:52;35.4;29;19.4
74428;PMS5003;62860;52.134;23.714;2022-10-26T16:14:18;42.8;32;19.4
74428;PMS5003;62860;52.134;23.714;2022-10-26T16:19:26;33.6;27.8;18.8
74428;PMS5003;62860;52.134;23.714;2022-10-26T16:24:16;47.4;36.4;22.2
74428;PMS5003;62860;52.134;23.714;2022-10-26T16:29:26;47.8;36.8;22.8
74428;PMS5003;62860;52.134;23.714;2022-10-26T16:34:26;37;29.2;20
74428;PMS5003;62860;52.134;23.714;2022-10-26T16:38:56;39.2;33.2;20.6
74428;PMS5003;62860;52.134;23.714;2022-10-26T16:43:46;32.6;26.6;16.2
74428;PMS5003;62860;52.134;23.714;2022-10-26T16:49:08;56;46.2;27
74428;PMS5003;62860;52.134;23.714;2022-10-26T16:54:28;58.2;43.2;26.2
74428;PMS5003;62860;52.134;23.714;2022-10-26T16:59:16;30;23.6;15
74428;PMS5003;62860;52.134;23.714;2022-10-26T17:04:16;21.4;17.6;12.8
74428;PMS5003;62860;52.134;23.714;2022-10-26T17:09:14;14.8;12.6;9.6
74428;PMS5003;62860;52.134;23.714;2022-10-26T17:14:06;15.6;13.4;10.4
74428;PMS5003;62860;52.134;23.714;2022-10-26T17:19:06;10.6;9.4;6
74428;PMS5003;62860;52.134;23.714;2022-10-26T17:24:16;12;11;7.8
74428;PMS5003;62860;52.134;23.714;2022-10-26T17:28:49;11.4;10.2;7.6
74428;PMS5003;62860;52.134;23.714;2022-10-26T17:33:46;8.8;7.6;5.6
74428;PMS5003;62860;52.134;23.714;2022-10-26T17:38:47;9.6;8.8;5.8
74428;PMS5003;62860;52.134;23.714;2022-10-26T17:44:26;8;6.2;4.4
74428;PMS5003;62860;52.134;23.714;2022-10-26T17:49:18;9.2;6.6;4.8
74428;PMS5003;62860;52.134;23.714;2022-10-26T17:53:46;10.6;7.8;6.4
74428;PMS5003;62860;52.134;23.714;2022-10-26T17:59:08;6.6;5;4.2
74428;PMS5003;62860;52.134;23.714;2022-10-26T18:04:26;7;5.8;4
74428;PMS5003;62860;52.134;23.714;2022-10-26T18:09:26;9.8;8;5.4
74428;PMS5003;62860;52.134;23.714;2022-10-26T18:14:04;8;7.2;5.4
74428;PMS5003;62860;52.134;23.714;2022-10-26T18:18:47;6.6;4.4;3.4
74428;PMS5003;62860;52.134;23.714;2022-10-26T18:23:46;5.6;5.6;4.4
74428;PMS5003;62860;52.134;23.714;2022-10-26T18:29:14;6.2;5;4.2
74428;PMS5003;62860;52.134;23.714;2022-10-26T18:34:04;8;5.6;4.4
74428;PMS5003;62860;52.134;23.714;2022-10-26T18:39:04;6.6;6.2;4.6
74428;PMS5003;62860;52.134;23.714;2022-10-26T18:44:18;8.2;6.8;4.8
74428;PMS5003;62860;52.134;23.714;2022-10-26T18:49:12;9;6.6;5.2
74428;PMS5003;62860;52.134;23.714;2022-10-26T18:54:16;7.8;5.8;5
74428;PMS5003;62860;52.134;23.714;2022-10-26T18:59:28;5.6;5;4.2
74428;PMS5003;62860;52.134;23.714;2022-10-26T19:04:26;8.8;7;4.6
74428;PMS5003;62860;52.134;23.714;2022-10-26T19:08:46;8.6;7.4;5
74428;PMS5003;62860;52.134;23.714;2022-10-26T19:13:46;8;6.8;5.4
74428;PMS5003;62860;52.134;23.714;2022-10-26T19:19:08;6.6;5.8;4.4
74428;PMS5003;62860;52.134;23.714;2022-10-26T19:24:28;7.8;7.4;5
74428;PMS5003;62860;52.134;23.714;2022-10-26T19:29:14;9.8;7.4;5.4
74428;PMS5003;62860;52.134;23.714;2022-10-26T19:34:26;9.2;6.4;5
74428;PMS5003;62860;52.134;23.714;2022-10-26T19:39:06;8.4;4.8;3.6
74428;PMS5003;62860;52.134;23.714;2022-10-26T19:44:18;9.4;9;6.4
74428;PMS5003;62860;52.134;23.714;2022-10-26T19:49:08;14.2;13.4;11.4
74428;PMS5003;62860;52.134;23.714;2022-10-26T19:54:14;19;18;16.4
74428;PMS5003;62860;52.134;23.714;2022-10-26T19:59:00;23.6;23.2;19.4
74428;PMS5003;62860;52.134;23.714;2022-10-26T20:04:02;25.6;25;21.2
74428;PMS5003;62860;52.134;23.714;2022-10-26T20:08:46;41.2;37.2;30
74428;PMS5003;62860;52.134;23.714;2022-10-26T20:14:16;38.4;34.6;29.4
74428;PMS5003;62860;52.134;23.714;2022-10-26T20:19:28;10.6;10;8.8
74428;PMS5003;62860;52.134;23.714;2022-10-26T20:24:08;16.4;15;13.4
74428;PMS5003;62860;52.134;23.714;2022-10-26T20:29:08;27.4;24.2;22.4
74428;PMS5003;62860;52.134;23.714;2022-10-26T20:34:28;43;37.4;31
74428;PMS5003;62860;52.134;23.714;2022-10-26T20:39:26;38.2;33.8;29
74428;PMS5003;62860;52.134;23.714;2022-10-26T20:44:07;25.6;25;23.4
74428;PMS5003;62860;52.134;23.714;2022-10-26T20:49:04;10;7.5;6
74428;PMS5003;62860;52.134;23.714;2022-10-26T20:53:48;10.8;9;7.8
74428;PMS5003;62860;52.134;23.714;2022-10-26T20:58:46;9;7.2;6
74428;PMS5003;62860;52.134;23.714;2022-10-26T21:04:08;7;4.8;4.4
74428;PMS5003;62860;52.134;23.714;2022-10-26T21:08:56;7.4;6.6;4.6
74428;PMS5003;62860;52.134;23.714;2022-10-26T21:14:20;7;6.6;5.8
74428;PMS5003;62860;52.134;23.714;2022-10-26T21:19:18;11;8.6;6.8
74428;PMS5003;62860;52.134;23.714;2022-10-26T21:24:08;10.6;9.2;7
74428;PMS5003;62860;52.134;23.714;2022-10-26T21:29:30;10.6;8.8;8
74428;PMS5003;62860;52.134;23.714;2022-10-26T21:34:18;9.6;6.8;5.8
74428;PMS5003;62860;52.134;23.714;2022-10-26T21:38:58;9.8;7.2;5.8
74428;PMS5003;62860;52.134;23.714;2022-10-26T21:44:06;7.4;6;4.6
74428;PMS5003;62860;52.134;23.714;2022-10-26T21:49:20;6.4;5.8;4.4
74428;PMS5003;62860;52.134;23.714;2022-10-26T21:54:30;6.2;5.6;3.8
74428;PMS5003;62860;52.134;23.714;2022-10-26T21:59:14;7.8;6.6;5.2
74428;PMS5003;62860;52.134;23.714;2022-10-26T22:04:24;8.4;5.8;4.4
74428;PMS5003;62860;52.134;23.714;2022-10-26T22:09:18;5.4;5;3.4
74428;PMS5003;62860;52.134;23.714;2022-10-26T22:14:18;7;5.2;3.2
74428;PMS5003;62860;52.134;23.714;2022-10-26T22:18:54;5.4;3.6;3.2
74428;PMS5003;62860;52.134;23.714;2022-10-26T22:24:14;7.4;6.4;4
74428;PMS5003;62860;52.134;23.714;2022-10-26T22:28:46;4.8;3.4;3.2
74428;PMS5003;62860;52.134;23.714;2022-10-26T22:33:49;5.8;5.2;4.2
74428;PMS5003;62860;52.134;23.714;2022-10-26T22:39:06;6.6;5.2;4
74428;PMS5003;62860;52.134;23.714;2022-10-26T22:44:26;8.6;6.4;5.4
74428;PMS5003;62860;52.134;23.714;2022-10-26T22:49:24;6.4;5;3.6
74428;PMS5003;62860;52.134;23.714;2022-10-26T22:53:58;5.6;4.6;3.4
74428;PMS5003;62860;52.134;23.714;2022-10-26T22:59:08;7.4;5.4;4
74428;PMS5003;62860;52.134;23.714;2022-10-26T23:04:26;5.2;4.4;3.2
74428;PMS5003;62860;52.134;23.714;2022-10-26T23:09:26;7.8;6.2;4.8
74428;PMS5003;62860;52.134;23.714;2022-10-26T23:14:08;6.8;5.8;4.6
74428;PMS5003;62860;52.134;23.714;2022-10-26T23:18:46;7;5.4;3.8
74428;PMS5003;62860;52.134;23.714;2022-10-26T23:24:04;7;4.6;4
74428;PMS5003;62860;52.134;23.714;2022-10-26T23:29:00;9;6.6;4.6
74428;PMS5003;62860;52.134;23.714;2022-10-26T23:34:08;6.2;5.6;4.2
74428;PMS5003;62860;52.134;23.714;2022-10-26T23:38:46;6.6;5.8;5
74428;PMS5003;62860;52.134;23.714;2022-10-26T23:44:06;7;4.8;4.2
74428;PMS5003;62860;52.134;23.714;2022-10-26T23:49:20;7;7;6
74428;PMS5003;62860;52.134;23.714;2022-10-26T23:54:24;8.8;5;4.4
74428;PMS5003;62860;52.134;23.714;2022-10-26T23:59:16;9.4;6.2;4.2
